createdAt,value
2024-02-24T00:00:58.916Z,3.67
2024-02-24T00:03:25.742Z,2.93
2024-02-24T00:05:52.585Z,3.37
2024-02-24T00:08:19.504Z,1.43
2024-02-24T00:10:47.766Z,3.67
2024-02-24T00:13:14.504Z,2.50
2024-02-24T00:15:41.277Z,1.57
2024-02-24T00:18:08.373Z,8.40
2024-02-24T00:20:35.395Z,1.23
2024-02-24T00:23:02.404Z,3.27
2024-02-24T00:25:29.240Z,0.87
2024-02-24T00:27:57.358Z,1.77
2024-02-24T00:30:25.076Z,6.50
2024-02-24T00:32:52.729Z,2.87
2024-02-24T00:35:20.806Z,1.07
2024-02-24T00:37:47.903Z,1.50
2024-02-24T00:40:15.111Z,2.50
2024-02-24T00:42:42.614Z,2.63
2024-02-24T00:45:10.330Z,1.63
2024-02-24T00:47:37.598Z,1.43
2024-02-24T00:50:05.774Z,2.23
2024-02-24T00:52:33.688Z,1.53
2024-02-24T00:55:04.392Z,1.13
2024-02-24T00:57:31.580Z,1.57
2024-02-24T00:59:58.792Z,2.10
2024-02-24T01:02:26.639Z,1.83
2024-02-24T01:04:57.500Z,3.40
2024-02-24T01:07:25.252Z,4.57
2024-02-24T01:09:53.013Z,5.80
2024-02-24T01:12:20.053Z,3.00
2024-02-24T01:14:47.883Z,1.77
2024-02-24T01:17:15.137Z,1.20
2024-02-24T01:19:42.852Z,1.67
2024-02-24T01:22:10.543Z,1.53
2024-02-24T01:24:38.706Z,1.13
2024-02-24T01:27:06.760Z,1.73
2024-02-24T01:29:35.018Z,2.33
2024-02-24T01:32:02.948Z,1.83
2024-02-24T01:34:30.842Z,1.53
2024-02-24T01:36:58.072Z,1.87
2024-02-24T01:39:24.877Z,2.07
2024-02-24T01:41:52.479Z,6.67
2024-02-24T01:44:20.452Z,6.20
2024-02-24T01:46:48.676Z,3.23
2024-02-24T01:49:17.339Z,7.63
2024-02-24T01:51:47.005Z,4.57
2024-02-24T01:54:15.524Z,3.50
2024-02-24T01:56:45.563Z,2.80
2024-02-24T01:59:12.970Z,1.80
2024-02-24T02:01:41.746Z,3.90
2024-02-24T02:04:09.644Z,2.47
2024-02-24T02:06:38.389Z,2.07
2024-02-24T02:09:06.220Z,1.30
2024-02-24T02:11:42.214Z,0.87
2024-02-24T02:14:18.748Z,1.47
2024-02-24T02:16:46.406Z,1.90
2024-02-24T02:19:14.076Z,2.90
2024-02-24T02:21:43.692Z,1.27
2024-02-24T02:24:12.643Z,1.30
2024-02-24T02:26:40.340Z,0.93
2024-02-24T02:29:08.143Z,2.17
2024-02-24T02:31:35.171Z,1.13
2024-02-24T02:34:02.960Z,1.33
2024-02-24T02:36:30.864Z,1.40
2024-02-24T02:38:58.537Z,1.03
2024-02-24T02:41:26.401Z,1.10
2024-02-24T02:43:53.258Z,1.27
2024-02-24T02:46:19.975Z,1.40
2024-02-24T02:48:46.833Z,1.30
2024-02-24T02:51:13.622Z,1.70
2024-02-24T02:53:40.464Z,1.03
2024-02-24T02:56:07.351Z,1.80
2024-02-24T02:58:34.157Z,0.83
2024-02-24T03:01:00.926Z,2.43
2024-02-24T03:03:27.816Z,2.63
2024-02-24T03:05:54.774Z,0.77
2024-02-24T03:08:21.582Z,1.13
2024-02-24T03:10:48.381Z,1.87
2024-02-24T03:13:15.112Z,1.30
2024-02-24T03:15:41.887Z,3.43
2024-02-24T03:18:08.668Z,1.70
2024-02-24T03:20:35.493Z,1.63
2024-02-24T03:23:05.211Z,2.20
2024-02-24T03:25:31.950Z,2.07
2024-02-24T03:27:58.891Z,1.30
2024-02-24T03:30:25.611Z,1.63
2024-02-24T03:32:52.443Z,1.50
2024-02-24T03:35:19.298Z,2.67
2024-02-24T03:37:46.035Z,0.83
2024-02-24T03:40:13.417Z,2.07
2024-02-24T03:42:40.114Z,1.60
2024-02-24T03:45:07.512Z,1.13
2024-02-24T03:47:34.286Z,0.97
2024-02-24T03:50:01.064Z,1.17
2024-02-24T03:52:27.827Z,1.47
2024-02-24T03:54:54.565Z,1.00
2024-02-24T03:57:21.279Z,2.20
2024-02-24T03:59:48.121Z,2.27
2024-02-24T04:02:14.880Z,2.27
2024-02-24T04:04:41.660Z,2.70
2024-02-24T04:07:08.781Z,1.20
2024-02-24T04:09:35.640Z,0.97
2024-02-24T04:12:02.417Z,2.27
2024-02-24T04:14:29.326Z,2.13
2024-02-24T04:16:56.808Z,2.47
2024-02-24T04:19:24.140Z,3.23
2024-02-24T04:21:51.052Z,1.97
2024-02-24T04:24:17.771Z,0.80
2024-02-24T04:26:44.535Z,2.30
2024-02-24T04:29:11.297Z,0.83
2024-02-24T04:31:38.155Z,2.07
2024-02-24T04:34:05.094Z,1.90
2024-02-24T04:36:31.837Z,0.63
2024-02-24T04:38:58.505Z,0.80
2024-02-24T04:41:25.238Z,1.80
2024-02-24T04:43:51.920Z,3.93
2024-02-24T04:46:18.604Z,3.47
2024-02-24T04:48:45.442Z,1.13
2024-02-24T04:51:12.251Z,1.13
2024-02-24T04:53:38.990Z,0.87
2024-02-24T04:56:05.948Z,1.23
2024-02-24T04:58:32.659Z,1.20
2024-02-24T05:00:59.408Z,2.67
2024-02-24T05:03:26.180Z,1.07
2024-02-24T05:05:52.984Z,1.10
2024-02-24T05:08:19.883Z,0.73
2024-02-24T05:10:46.652Z,2.70
2024-02-24T05:13:13.394Z,0.50
2024-02-24T05:15:40.080Z,1.27
2024-02-24T05:18:06.994Z,0.63
2024-02-24T05:20:34.002Z,0.90
2024-02-24T05:23:02.142Z,1.27
2024-02-24T05:25:28.882Z,2.80
2024-02-24T05:27:55.579Z,2.30
2024-02-24T05:30:22.267Z,0.97
2024-02-24T05:32:49.024Z,1.47
2024-02-24T05:35:16.120Z,0.90
2024-02-24T05:37:42.933Z,1.00
2024-02-24T05:40:10.244Z,2.73
2024-02-24T05:42:36.946Z,1.47
2024-02-24T05:45:04.337Z,2.10
2024-02-24T05:47:31.203Z,1.40
2024-02-24T05:49:58.016Z,1.77
2024-02-24T05:52:25.622Z,2.60
2024-02-24T05:54:53.185Z,2.47
2024-02-24T05:57:19.897Z,0.77
2024-02-24T05:59:46.737Z,1.20
2024-02-24T06:02:13.714Z,0.73
2024-02-24T06:04:40.454Z,0.87
2024-02-24T06:07:07.316Z,0.80
2024-02-24T06:09:34.015Z,0.60
2024-02-24T06:12:00.940Z,1.60
2024-02-24T06:14:27.719Z,1.63
2024-02-24T06:16:54.468Z,1.73
2024-02-24T06:19:21.332Z,1.30
2024-02-24T06:21:48.133Z,1.33
2024-02-24T06:24:14.889Z,0.43
2024-02-24T06:26:41.602Z,1.20
2024-02-24T06:29:09.058Z,0.93
2024-02-24T06:31:35.778Z,0.90
2024-02-24T06:34:06.108Z,1.17
2024-02-24T06:36:34.958Z,0.80
2024-02-24T06:39:01.728Z,0.77
2024-02-24T06:41:28.520Z,1.23
2024-02-24T06:43:55.234Z,2.67
2024-02-24T06:46:21.935Z,0.70
2024-02-24T06:48:49.321Z,2.27
2024-02-24T06:51:16.131Z,1.07
2024-02-24T06:53:43.855Z,0.43
2024-02-24T06:56:11.193Z,1.10
2024-02-24T06:58:38.410Z,0.50
2024-02-24T07:01:05.464Z,0.90
2024-02-24T07:03:35.941Z,0.80
2024-02-24T07:06:03.417Z,0.93
2024-02-24T07:08:30.325Z,0.50
2024-02-24T07:10:57.196Z,1.00
2024-02-24T07:13:24.273Z,1.23
2024-02-24T07:15:50.985Z,1.20
2024-02-24T07:18:18.050Z,0.90
2024-02-24T07:20:45.871Z,2.53
2024-02-24T07:23:12.707Z,0.90
2024-02-24T07:25:39.944Z,1.70
2024-02-24T07:28:07.379Z,1.60
2024-02-24T07:30:34.278Z,1.67
2024-02-24T07:33:01.813Z,1.30
2024-02-24T07:35:28.738Z,1.10
2024-02-24T07:37:55.491Z,1.30
2024-02-24T07:40:22.228Z,1.43
2024-02-24T07:42:50.472Z,0.60
2024-02-24T07:45:17.391Z,0.70
2024-02-24T07:47:44.326Z,0.70
2024-02-24T07:50:11.180Z,0.90
2024-02-24T07:52:38.413Z,0.57
2024-02-24T07:55:05.969Z,0.60
2024-02-24T07:57:32.703Z,1.60
2024-02-24T07:59:59.361Z,0.50
2024-02-24T08:02:26.221Z,1.13
2024-02-24T08:04:53.100Z,1.07
2024-02-24T08:07:20.286Z,0.40
2024-02-24T08:09:47.979Z,0.30
2024-02-24T08:12:14.836Z,0.70
2024-02-24T08:14:41.930Z,0.70
2024-02-24T08:17:08.973Z,1.03
2024-02-24T08:19:36.710Z,0.77
2024-02-24T08:22:04.146Z,1.97
2024-02-24T08:24:30.984Z,0.20
2024-02-24T08:26:57.859Z,0.93
2024-02-24T08:29:24.695Z,0.40
2024-02-24T08:31:51.486Z,0.70
2024-02-24T08:34:19.090Z,0.90
2024-02-24T08:36:46.056Z,0.80
2024-02-24T08:39:12.989Z,2.53
2024-02-24T08:41:39.831Z,1.10
2024-02-24T08:44:06.942Z,0.40
2024-02-24T08:46:33.716Z,1.27
2024-02-24T08:49:00.498Z,1.27
2024-02-24T08:51:28.080Z,1.60
2024-02-24T08:53:55.610Z,1.30
2024-02-24T08:56:26.103Z,1.07
2024-02-24T08:58:52.919Z,0.40
2024-02-24T09:01:19.882Z,0.80
2024-02-24T09:03:46.891Z,0.60
2024-02-24T09:06:14.391Z,0.77
2024-02-24T09:08:41.259Z,0.30
2024-02-24T09:11:08.065Z,1.87
2024-02-24T09:13:35.090Z,1.37
2024-02-24T09:16:01.822Z,0.33
2024-02-24T09:18:29.402Z,1.17
2024-02-24T09:20:56.319Z,0.90
2024-02-24T09:23:23.183Z,0.50
2024-02-24T09:25:49.982Z,0.37
2024-02-24T09:28:16.676Z,0.60
2024-02-24T09:30:43.560Z,0.53
2024-02-24T09:33:10.427Z,1.70
2024-02-24T09:35:37.344Z,2.13
2024-02-24T09:38:04.142Z,0.50
2024-02-24T09:40:31.055Z,1.17
2024-02-24T09:43:05.754Z,2.97
2024-02-24T09:45:42.595Z,1.17
2024-02-24T09:48:10.426Z,1.07
2024-02-24T09:50:37.451Z,1.57
2024-02-24T09:53:04.344Z,0.33
2024-02-24T09:55:31.209Z,1.57
2024-02-24T09:57:58.672Z,0.43
2024-02-24T10:00:25.477Z,1.27
2024-02-24T10:02:52.690Z,1.07
2024-02-24T10:05:19.852Z,2.07
2024-02-24T10:07:47.157Z,0.93
2024-02-24T10:10:15.628Z,0.83
2024-02-24T10:12:57.496Z,0.63
2024-02-24T10:15:25.078Z,2.33
2024-02-24T10:17:55.221Z,1.33
2024-02-24T10:20:22.195Z,0.60
2024-02-24T10:22:49.141Z,0.60
2024-02-24T10:25:16.093Z,1.33
2024-02-24T10:27:47.263Z,1.00
2024-02-24T10:30:14.804Z,0.70
2024-02-24T10:32:43.204Z,1.63
2024-02-24T10:35:11.602Z,1.07
2024-02-24T10:37:56.447Z,0.70
2024-02-24T10:40:25.474Z,0.60
2024-02-24T10:42:53.112Z,0.50
2024-02-24T10:45:20.955Z,0.60
2024-02-24T10:47:49.055Z,0.87
2024-02-24T10:50:18.262Z,2.10
2024-02-24T10:52:45.782Z,0.50
2024-02-24T10:55:13.754Z,2.47
2024-02-24T10:57:40.642Z,1.23
2024-02-24T11:00:26.850Z,0.50
2024-02-24T11:02:53.830Z,0.77
2024-02-24T11:05:21.192Z,1.37
2024-02-24T11:07:48.354Z,5.20
2024-02-24T11:10:19.365Z,0.83
2024-02-24T11:12:48.902Z,0.53
2024-02-24T11:15:19.895Z,0.47
2024-02-24T11:17:54.872Z,1.80
2024-02-24T11:20:40.279Z,1.00
2024-02-24T11:23:32.764Z,1.10
2024-02-24T11:26:11.926Z,0.60
2024-02-24T11:28:44.996Z,0.50
2024-02-24T11:31:18.945Z,0.90
2024-02-24T11:33:45.938Z,1.20
2024-02-24T11:36:13.294Z,0.70
2024-02-24T11:38:41.163Z,0.47
2024-02-24T11:41:07.872Z,1.80
2024-02-24T11:43:34.926Z,1.23
2024-02-24T11:46:04.930Z,1.27
2024-02-24T11:48:32.253Z,0.53
2024-02-24T11:50:59.235Z,2.33
2024-02-24T11:53:26.076Z,1.60
2024-02-24T11:55:52.909Z,2.70
2024-02-24T11:58:20.829Z,0.70
2024-02-24T12:00:47.573Z,1.23
2024-02-24T12:03:16.323Z,1.57
2024-02-24T12:05:44.345Z,0.83
2024-02-24T12:08:22.646Z,0.67
2024-02-24T12:10:49.646Z,0.50
2024-02-24T12:13:16.563Z,0.30
2024-02-24T12:15:47.577Z,0.47
2024-02-24T12:18:14.720Z,4.90
2024-02-24T12:20:43.158Z,1.43
2024-02-24T12:23:11.222Z,1.27
2024-02-24T12:25:38.231Z,1.37
2024-02-24T12:28:06.075Z,0.80
2024-02-24T12:30:38.158Z,0.77
2024-02-24T12:33:06.334Z,2.33
2024-02-24T12:35:33.690Z,1.40
2024-02-24T12:38:02.011Z,1.27
2024-02-24T12:40:33.273Z,1.90
2024-02-24T12:43:01.041Z,1.93
2024-02-24T12:45:28.435Z,2.80
2024-02-24T12:47:56.043Z,0.80
2024-02-24T12:50:24.391Z,2.13
2024-02-24T12:52:52.123Z,1.20
2024-02-24T12:55:19.094Z,1.37
2024-02-24T12:57:46.362Z,1.87
2024-02-24T13:00:13.904Z,1.90
2024-02-24T13:02:41.033Z,0.83
2024-02-24T13:05:08.746Z,2.67
2024-02-24T13:07:35.610Z,3.80
2024-02-24T13:10:02.681Z,3.23
2024-02-24T13:12:29.626Z,2.97
2024-02-24T13:14:56.488Z,2.97
2024-02-24T13:17:23.397Z,1.83
2024-02-24T13:19:52.856Z,1.60
2024-02-24T13:22:20.590Z,1.83
2024-02-24T13:24:47.371Z,1.20
2024-02-24T13:27:14.099Z,1.37
2024-02-24T13:29:40.967Z,2.03
2024-02-24T13:32:07.787Z,2.10
2024-02-24T13:34:34.641Z,1.00
2024-02-24T13:37:01.375Z,0.60
2024-02-24T13:39:28.154Z,1.60
2024-02-24T13:41:55.425Z,2.00
2024-02-24T13:44:22.526Z,2.73
2024-02-24T13:46:49.879Z,2.70
2024-02-24T13:49:19.257Z,1.67
2024-02-24T13:51:47.044Z,0.77
2024-02-24T13:54:13.940Z,3.83
2024-02-24T13:56:40.881Z,3.20
2024-02-24T13:59:07.834Z,1.60
2024-02-24T14:01:34.908Z,2.40
2024-02-24T14:04:03.328Z,2.50
2024-02-24T14:06:30.336Z,1.30
2024-02-24T14:08:57.219Z,1.20
2024-02-24T14:11:24.759Z,1.67
2024-02-24T14:13:51.931Z,2.03
2024-02-24T14:16:19.445Z,1.20
2024-02-24T14:18:47.000Z,1.40
2024-02-24T14:21:14.299Z,1.90
2024-02-24T14:23:41.211Z,2.13
2024-02-24T14:26:07.991Z,1.40
2024-02-24T14:28:34.709Z,0.80
2024-02-24T14:31:01.416Z,3.10
2024-02-24T14:33:28.617Z,1.10
2024-02-24T14:35:55.629Z,2.00
2024-02-24T14:38:22.553Z,1.50
2024-02-24T14:40:52.797Z,0.70
2024-02-24T14:43:19.932Z,1.03
2024-02-24T14:45:46.621Z,0.60
2024-02-24T14:48:13.480Z,0.93
2024-02-24T14:50:41.532Z,1.27
2024-02-24T14:53:08.283Z,2.40
2024-02-24T14:55:35.286Z,3.00
2024-02-24T14:58:02.048Z,0.90
2024-02-24T15:00:28.822Z,1.57
2024-02-24T15:03:08.414Z,0.80
2024-02-24T15:05:37.499Z,0.93
2024-02-24T15:08:04.670Z,2.63
2024-02-24T15:10:31.437Z,2.63
2024-02-24T15:12:58.213Z,1.53
2024-02-24T15:15:25.074Z,3.50
2024-02-24T15:17:53.693Z,2.27
2024-02-24T15:20:21.227Z,1.20
2024-02-24T15:22:49.220Z,1.93
2024-02-24T15:25:16.169Z,2.10
2024-02-24T15:27:43.887Z,5.57
2024-02-24T15:30:11.667Z,1.07
2024-02-24T15:32:38.604Z,1.13
2024-02-24T15:35:06.165Z,1.23
2024-02-24T15:37:35.280Z,0.77
2024-02-24T15:40:08.296Z,2.53
2024-02-24T15:42:36.375Z,2.00
2024-02-24T15:45:04.010Z,2.10
2024-02-24T15:47:30.960Z,0.93
2024-02-24T15:49:57.754Z,0.70
2024-02-24T15:52:24.653Z,2.30
2024-02-24T15:54:51.572Z,1.60
2024-02-24T15:57:18.444Z,0.63
2024-02-24T15:59:45.244Z,1.17
2024-02-24T16:02:12.065Z,1.10
2024-02-24T16:04:38.873Z,0.70
2024-02-24T16:07:06.767Z,1.27
2024-02-24T16:09:36.000Z,1.97
2024-02-24T16:12:03.478Z,1.67
2024-02-24T16:14:30.334Z,2.30
2024-02-24T16:16:57.221Z,1.67
2024-02-24T16:19:24.084Z,1.90
2024-02-24T16:21:50.973Z,2.67
2024-02-24T16:24:17.659Z,0.83
2024-02-24T16:26:44.364Z,0.80
2024-02-24T16:29:11.070Z,2.53
2024-02-24T16:31:37.796Z,0.53
2024-02-24T16:34:05.044Z,2.00
2024-02-24T16:36:33.137Z,1.57
2024-02-24T16:39:02.777Z,2.30
2024-02-24T16:41:29.609Z,1.47
2024-02-24T16:43:56.305Z,1.40
2024-02-24T16:46:23.166Z,1.37
2024-02-24T16:48:53.969Z,4.53
2024-02-24T16:51:20.762Z,1.23
2024-02-24T16:53:47.575Z,2.60
2024-02-24T16:56:14.308Z,1.00
2024-02-24T16:58:41.569Z,1.67
2024-02-24T17:01:08.513Z,1.33
2024-02-24T17:03:35.347Z,1.40
2024-02-24T17:06:03.440Z,0.90
2024-02-24T17:08:30.234Z,0.60
2024-02-24T17:10:56.963Z,1.33
2024-02-24T17:13:23.732Z,1.30
2024-02-24T17:15:50.489Z,1.37
2024-02-24T17:18:23.843Z,2.40
2024-02-24T17:20:54.254Z,1.43
2024-02-24T17:23:21.050Z,2.40
2024-02-24T17:25:48.143Z,1.37
2024-02-24T17:28:14.821Z,0.67
2024-02-24T17:30:41.504Z,1.17
2024-02-24T17:33:09.335Z,2.30
2024-02-24T17:35:36.178Z,5.10
2024-02-24T17:38:03.752Z,4.30
2024-02-24T17:40:30.544Z,2.00
2024-02-24T17:42:57.743Z,5.90
2024-02-24T17:45:24.562Z,3.27
2024-02-24T17:47:51.364Z,5.17
2024-02-24T17:50:18.790Z,3.60
2024-02-24T17:52:45.584Z,4.43
2024-02-24T17:55:13.398Z,5.07
2024-02-24T17:57:40.183Z,5.20
2024-02-24T18:00:08.171Z,5.17
2024-02-24T18:02:35.603Z,5.77
2024-02-24T18:05:02.515Z,4.57
2024-02-24T18:07:29.589Z,5.80
2024-02-24T18:09:56.287Z,6.80
2024-02-24T18:12:23.053Z,7.83
2024-02-24T18:14:53.481Z,8.10
2024-02-24T18:17:20.642Z,9.87
2024-02-24T18:19:47.508Z,8.37
2024-02-24T18:22:14.554Z,7.60
2024-02-24T18:24:44.772Z,2.93
2024-02-24T18:27:12.194Z,4.13
2024-02-24T18:29:38.892Z,7.00
2024-02-24T18:32:05.947Z,8.47
2024-02-24T18:34:33.186Z,3.33
2024-02-24T18:36:59.912Z,5.23
2024-02-24T18:39:26.596Z,2.17
2024-02-24T18:41:53.371Z,1.43
2024-02-24T18:44:20.137Z,1.93
2024-02-24T18:46:47.174Z,2.60
2024-02-24T18:49:14.030Z,4.93
2024-02-24T18:51:40.780Z,2.37
2024-02-24T18:54:07.811Z,2.23
2024-02-24T18:56:34.770Z,3.53
2024-02-24T18:59:03.436Z,3.03
2024-02-24T19:01:30.208Z,2.27
2024-02-24T19:03:57.022Z,1.67
2024-02-24T19:06:23.848Z,3.67
2024-02-24T19:08:50.640Z,5.53
2024-02-24T19:11:17.546Z,7.03
2024-02-24T19:13:44.374Z,3.10
2024-02-24T19:16:11.730Z,3.77
2024-02-24T19:18:39.005Z,2.40
2024-02-24T19:21:06.044Z,2.50
2024-02-24T19:23:34.755Z,1.77
2024-02-24T19:26:01.544Z,2.20
2024-02-24T19:28:28.258Z,4.03
2024-02-24T19:30:55.063Z,1.80
2024-02-24T19:33:22.068Z,1.40
2024-02-24T19:35:49.180Z,3.20
2024-02-24T19:38:16.042Z,1.47
2024-02-24T19:40:43.216Z,3.07
2024-02-24T19:43:10.188Z,3.67
2024-02-24T19:45:36.898Z,3.20
2024-02-24T19:48:03.978Z,2.23
2024-02-24T19:50:30.803Z,2.80
2024-02-24T19:52:57.545Z,1.27
2024-02-24T19:55:24.331Z,1.73
2024-02-24T19:57:51.060Z,5.40
2024-02-24T20:00:17.954Z,3.23
2024-02-24T20:02:44.687Z,2.83
2024-02-24T20:05:11.719Z,1.87
2024-02-24T20:07:38.438Z,4.67
2024-02-24T20:10:06.392Z,3.80
2024-02-24T20:12:35.705Z,3.30
2024-02-24T20:15:03.277Z,7.77
2024-02-24T20:17:31.123Z,4.17
2024-02-24T20:19:58.233Z,4.63
2024-02-24T20:22:24.898Z,3.80
2024-02-24T20:24:51.562Z,3.20
2024-02-24T20:27:18.234Z,3.47
2024-02-24T20:29:45.077Z,4.50
2024-02-24T20:32:11.846Z,2.70
2024-02-24T20:34:38.660Z,3.00
2024-02-24T20:37:05.379Z,4.73
2024-02-24T20:39:32.177Z,9.77
2024-02-24T20:41:59.868Z,9.80
2024-02-24T20:44:26.692Z,20.43
2024-02-24T20:46:54.357Z,11.40
2024-02-24T20:49:25.787Z,9.97
2024-02-24T20:51:58.289Z,7.13
2024-02-24T20:54:26.748Z,8.43
2024-02-24T20:56:53.908Z,9.83
2024-02-24T20:59:20.730Z,5.33
2024-02-24T21:01:47.536Z,4.00
2024-02-24T21:04:14.245Z,5.03
2024-02-24T21:06:44.383Z,5.97
2024-02-24T21:09:11.616Z,5.47
2024-02-24T21:11:39.737Z,1.80
2024-02-24T21:14:07.735Z,3.90
2024-02-24T21:16:36.614Z,5.40
2024-02-24T21:19:06.432Z,5.83
2024-02-24T21:21:35.413Z,5.43
2024-02-24T21:24:02.236Z,2.77
2024-02-24T21:26:29.035Z,2.60
2024-02-24T21:28:56.553Z,5.10
2024-02-24T21:31:23.649Z,2.40
2024-02-24T21:33:50.646Z,3.23
2024-02-24T21:36:20.318Z,2.90
2024-02-24T21:38:47.771Z,2.23
2024-02-24T21:41:21.231Z,4.10
2024-02-24T21:43:48.215Z,5.47
2024-02-24T21:46:16.855Z,3.63
2024-02-24T21:48:43.918Z,2.90
2024-02-24T21:51:12.204Z,6.63
2024-02-24T21:53:40.083Z,5.10
2024-02-24T21:56:08.506Z,4.07
2024-02-24T21:58:36.358Z,4.87
2024-02-24T22:01:04.275Z,3.60
2024-02-24T22:03:32.328Z,3.23
2024-02-24T22:06:00.169Z,6.23
2024-02-24T22:08:27.913Z,4.57
2024-02-24T22:10:55.082Z,6.03
2024-02-24T22:13:22.842Z,4.63
2024-02-24T22:15:50.690Z,3.10
2024-02-24T22:18:18.690Z,4.20
2024-02-24T22:20:46.662Z,5.80
2024-02-24T22:23:14.211Z,6.10
2024-02-24T22:25:42.050Z,7.27
2024-02-24T22:28:11.308Z,6.40
2024-02-24T22:30:39.410Z,7.87
2024-02-24T22:33:07.317Z,4.13
2024-02-24T22:35:34.589Z,5.20
2024-02-24T22:38:02.084Z,5.27
2024-02-24T22:40:29.144Z,4.97
2024-02-24T22:42:55.878Z,4.10
2024-02-24T22:45:22.639Z,6.43
2024-02-24T22:47:49.757Z,4.10
2024-02-24T22:50:16.719Z,3.93
2024-02-24T22:52:43.901Z,5.87
2024-02-24T22:55:12.758Z,5.57
2024-02-24T22:57:39.976Z,5.03
2024-02-24T23:00:12.007Z,3.40
2024-02-24T23:02:39.723Z,5.47
2024-02-24T23:05:07.697Z,5.57
2024-02-24T23:07:35.033Z,3.80
2024-02-24T23:10:02.942Z,3.80
2024-02-24T23:12:30.645Z,5.33
2024-02-24T23:14:58.327Z,5.17
2024-02-24T23:17:26.559Z,4.37
2024-02-24T23:19:54.228Z,7.57
2024-02-24T23:22:21.821Z,7.87
2024-02-24T23:24:49.576Z,7.80
2024-02-24T23:27:17.599Z,10.10
2024-02-24T23:29:45.417Z,11.47
2024-02-24T23:32:12.757Z,13.50
2024-02-24T23:34:40.962Z,16.23
2024-02-24T23:37:08.837Z,15.70
2024-02-24T23:39:36.309Z,12.43
2024-02-24T23:42:04.204Z,13.17
2024-02-24T23:44:31.931Z,11.63
2024-02-24T23:46:59.695Z,11.40
2024-02-24T23:49:27.546Z,8.13
2024-02-24T23:51:55.362Z,7.03
2024-02-24T23:54:22.908Z,4.77
2024-02-24T23:56:50.684Z,6.40
2024-02-24T23:59:18.533Z,6.20
